sensor_id;sensor_type;location;lat;lon;timestamp;P1;durP1;ratioP1;P2;durP2;ratioP2
55368;SDS011;41247;49.736;8.752;2022-11-15T00:00:50;6.63;;;3.10;;
55368;SDS011;41247;49.736;8.752;2022-11-15T00:04:31;10.20;;;4.40;;
55368;SDS011;41247;49.736;8.752;2022-11-15T00:08:18;9.07;;;3.25;;
55368;SDS011;41247;49.736;8.752;2022-11-15T00:11:59;7.43;;;3.30;;
55368;SDS011;41247;49.736;8.752;2022-11-15T00:15:40;4.07;;;2.90;;
55368;SDS011;41247;49.736;8.752;2022-11-15T00:19:21;8.57;;;3.20;;
55368;SDS011;41247;49.736;8.752;2022-11-15T00:23:10;7.07;;;3.30;;
55368;SDS011;41247;49.736;8.752;2022-11-15T00:26:50;4.03;;;2.90;;
55368;SDS011;41247;49.736;8.752;2022-11-15T00:30:31;7.68;;;3.38;;
55368;SDS011;41247;49.736;8.752;2022-11-15T00:34:12;13.05;;;3.25;;
55368;SDS011;41247;49.736;8.752;2022-11-15T00:37:52;5.88;;;3.50;;
55368;SDS011;41247;49.736;8.752;2022-11-15T00:41:33;6.95;;;3.00;;
55368;SDS011;41247;49.736;8.752;2022-11-15T00:45:13;7.70;;;3.70;;
55368;SDS011;41247;49.736;8.752;2022-11-15T00:48:54;5.53;;;3.10;;
55368;SDS011;41247;49.736;8.752;2022-11-15T00:52:34;5.85;;;3.17;;
55368;SDS011;41247;49.736;8.752;2022-11-15T00:56:15;4.68;;;2.60;;
55368;SDS011;41247;49.736;8.752;2022-11-15T00:59:56;3.60;;;2.53;;
55368;SDS011;41247;49.736;8.752;2022-11-15T01:03:37;9.23;;;2.95;;
55368;SDS011;41247;49.736;8.752;2022-11-15T01:07:19;6.88;;;2.80;;
55368;SDS011;41247;49.736;8.752;2022-11-15T01:11:00;4.18;;;2.70;;
55368;SDS011;41247;49.736;8.752;2022-11-15T01:14:45;5.18;;;2.75;;
55368;SDS011;41247;49.736;8.752;2022-11-15T01:18:26;8.20;;;3.17;;
55368;SDS011;41247;49.736;8.752;2022-11-15T01:25:52;5.90;;;3.20;;
55368;SDS011;41247;49.736;8.752;2022-11-15T01:29:39;7.03;;;3.35;;
55368;SDS011;41247;49.736;8.752;2022-11-15T01:33:20;5.20;;;2.70;;
55368;SDS011;41247;49.736;8.752;2022-11-15T01:37:00;7.50;;;3.10;;
55368;SDS011;41247;49.736;8.752;2022-11-15T01:40:41;7.93;;;2.75;;
55368;SDS011;41247;49.736;8.752;2022-11-15T01:48:14;9.30;;;3.08;;
55368;SDS011;41247;49.736;8.752;2022-11-15T01:51:54;5.72;;;3.00;;
55368;SDS011;41247;49.736;8.752;2022-11-15T01:55:36;6.10;;;2.85;;
55368;SDS011;41247;49.736;8.752;2022-11-15T01:59:17;7.50;;;3.08;;
55368;SDS011;41247;49.736;8.752;2022-11-15T02:02:59;6.63;;;3.50;;
55368;SDS011;41247;49.736;8.752;2022-11-15T02:06:40;6.22;;;2.95;;
55368;SDS011;41247;49.736;8.752;2022-11-15T02:10:23;5.63;;;3.22;;
55368;SDS011;41247;49.736;8.752;2022-11-15T02:14:04;6.38;;;3.38;;
55368;SDS011;41247;49.736;8.752;2022-11-15T02:17:56;3.58;;;2.80;;
55368;SDS011;41247;49.736;8.752;2022-11-15T02:30:36;4.85;;;2.85;;
55368;SDS011;41247;49.736;8.752;2022-11-15T02:34:43;6.88;;;3.10;;
55368;SDS011;41247;49.736;8.752;2022-11-15T02:42:40;7.72;;;3.38;;
55368;SDS011;41247;49.736;8.752;2022-11-15T02:50:25;5.82;;;2.90;;
55368;SDS011;41247;49.736;8.752;2022-11-15T02:54:43;5.50;;;3.10;;
55368;SDS011;41247;49.736;8.752;2022-11-15T03:02:52;7.75;;;2.70;;
55368;SDS011;41247;49.736;8.752;2022-11-15T03:07:00;4.63;;;2.80;;
55368;SDS011;41247;49.736;8.752;2022-11-15T03:11:18;7.95;;;3.08;;
55368;SDS011;41247;49.736;8.752;2022-11-15T03:15:04;7.85;;;3.10;;
55368;SDS011;41247;49.736;8.752;2022-11-15T03:23:09;7.55;;;3.13;;
55368;SDS011;41247;49.736;8.752;2022-11-15T03:26:51;5.88;;;2.90;;
55368;SDS011;41247;49.736;8.752;2022-11-15T03:30:35;5.63;;;3.03;;
55368;SDS011;41247;49.736;8.752;2022-11-15T03:38:48;5.45;;;2.95;;
55368;SDS011;41247;49.736;8.752;2022-11-15T03:46:52;5.55;;;3.08;;
55368;SDS011;41247;49.736;8.752;2022-11-15T03:50:33;7.15;;;3.00;;
55368;SDS011;41247;49.736;8.752;2022-11-15T03:54:16;7.45;;;2.78;;
55368;SDS011;41247;49.736;8.752;2022-11-15T03:57:58;8.60;;;2.90;;
55368;SDS011;41247;49.736;8.752;2022-11-15T04:01:40;5.77;;;3.03;;
55368;SDS011;41247;49.736;8.752;2022-11-15T04:05:21;5.55;;;3.00;;
55368;SDS011;41247;49.736;8.752;2022-11-15T04:09:01;6.63;;;2.80;;
55368;SDS011;41247;49.736;8.752;2022-11-15T04:12:43;9.98;;;3.10;;
55368;SDS011;41247;49.736;8.752;2022-11-15T04:16:25;8.50;;;2.90;;
55368;SDS011;41247;49.736;8.752;2022-11-15T04:20:07;6.72;;;2.67;;
55368;SDS011;41247;49.736;8.752;2022-11-15T04:23:53;7.57;;;2.67;;
55368;SDS011;41247;49.736;8.752;2022-11-15T04:27:46;5.63;;;2.70;;
55368;SDS011;41247;49.736;8.752;2022-11-15T04:31:27;7.20;;;2.78;;
55368;SDS011;41247;49.736;8.752;2022-11-15T04:35:10;8.63;;;2.75;;
55368;SDS011;41247;49.736;8.752;2022-11-15T04:38:54;7.82;;;3.00;;
55368;SDS011;41247;49.736;8.752;2022-11-15T04:43:19;8.57;;;2.90;;
55368;SDS011;41247;49.736;8.752;2022-11-15T04:47:21;6.87;;;2.80;;
55368;SDS011;41247;49.736;8.752;2022-11-15T04:51:12;6.70;;;3.15;;
55368;SDS011;41247;49.736;8.752;2022-11-15T05:04:02;4.97;;;2.88;;
55368;SDS011;41247;49.736;8.752;2022-11-15T05:12:22;5.10;;;2.90;;
55368;SDS011;41247;49.736;8.752;2022-11-15T05:16:03;7.13;;;2.80;;
55368;SDS011;41247;49.736;8.752;2022-11-15T05:19:44;5.30;;;2.70;;
55368;SDS011;41247;49.736;8.752;2022-11-15T05:23:24;4.38;;;2.88;;
55368;SDS011;41247;49.736;8.752;2022-11-15T05:27:05;5.30;;;2.70;;
55368;SDS011;41247;49.736;8.752;2022-11-15T05:30:45;6.93;;;2.75;;
55368;SDS011;41247;49.736;8.752;2022-11-15T05:34:26;8.07;;;3.05;;
55368;SDS011;41247;49.736;8.752;2022-11-15T05:38:09;5.63;;;2.83;;
55368;SDS011;41247;49.736;8.752;2022-11-15T05:41:51;6.80;;;2.80;;
55368;SDS011;41247;49.736;8.752;2022-11-15T05:45:52;7.60;;;2.90;;
55368;SDS011;41247;49.736;8.752;2022-11-15T05:49:35;6.18;;;3.00;;
55368;SDS011;41247;49.736;8.752;2022-11-15T05:53:19;8.57;;;3.40;;
55368;SDS011;41247;49.736;8.752;2022-11-15T05:57:01;7.03;;;3.08;;
55368;SDS011;41247;49.736;8.752;2022-11-15T06:00:45;6.20;;;2.95;;
55368;SDS011;41247;49.736;8.752;2022-11-15T06:04:26;5.95;;;3.08;;
55368;SDS011;41247;49.736;8.752;2022-11-15T06:08:14;4.28;;;2.67;;
55368;SDS011;41247;49.736;8.752;2022-11-15T06:11:55;7.57;;;2.60;;
55368;SDS011;41247;49.736;8.752;2022-11-15T06:15:35;7.07;;;3.47;;
55368;SDS011;41247;49.736;8.752;2022-11-15T06:19:16;6.50;;;3.03;;
55368;SDS011;41247;49.736;8.752;2022-11-15T06:26:48;3.92;;;2.72;;
55368;SDS011;41247;49.736;8.752;2022-11-15T06:30:31;6.78;;;2.80;;
55368;SDS011;41247;49.736;8.752;2022-11-15T06:34:12;8.15;;;3.20;;
55368;SDS011;41247;49.736;8.752;2022-11-15T06:37:52;6.28;;;2.75;;
55368;SDS011;41247;49.736;8.752;2022-11-15T06:41:33;4.57;;;2.55;;
55368;SDS011;41247;49.736;8.752;2022-11-15T06:45:16;8.02;;;2.60;;
55368;SDS011;41247;49.736;8.752;2022-11-15T06:48:57;5.97;;;2.90;;
55368;SDS011;41247;49.736;8.752;2022-11-15T06:52:37;9.13;;;2.90;;
55368;SDS011;41247;49.736;8.752;2022-11-15T06:56:24;5.13;;;3.03;;
55368;SDS011;41247;49.736;8.752;2022-11-15T07:00:05;7.18;;;2.65;;
55368;SDS011;41247;49.736;8.752;2022-11-15T07:03:46;4.00;;;2.80;;
55368;SDS011;41247;49.736;8.752;2022-11-15T07:07:27;5.53;;;2.75;;
55368;SDS011;41247;49.736;8.752;2022-11-15T07:11:08;6.88;;;2.72;;
55368;SDS011;41247;49.736;8.752;2022-11-15T07:14:49;9.40;;;2.88;;
55368;SDS011;41247;49.736;8.752;2022-11-15T07:18:29;6.20;;;2.75;;
55368;SDS011;41247;49.736;8.752;2022-11-15T07:22:10;6.43;;;2.78;;
55368;SDS011;41247;49.736;8.752;2022-11-15T07:25:50;8.80;;;3.08;;
55368;SDS011;41247;49.736;8.752;2022-11-15T07:29:31;5.72;;;2.75;;
55368;SDS011;41247;49.736;8.752;2022-11-15T07:33:12;6.03;;;2.80;;
55368;SDS011;41247;49.736;8.752;2022-11-15T07:36:52;6.97;;;2.97;;
55368;SDS011;41247;49.736;8.752;2022-11-15T07:40:33;8.00;;;3.00;;
55368;SDS011;41247;49.736;8.752;2022-11-15T07:44:13;5.82;;;2.90;;
55368;SDS011;41247;49.736;8.752;2022-11-15T07:47:54;6.32;;;3.05;;
55368;SDS011;41247;49.736;8.752;2022-11-15T07:51:35;7.88;;;2.97;;
55368;SDS011;41247;49.736;8.752;2022-11-15T07:55:16;7.47;;;2.97;;
55368;SDS011;41247;49.736;8.752;2022-11-15T07:58:57;5.75;;;2.67;;
55368;SDS011;41247;49.736;8.752;2022-11-15T08:02:37;6.45;;;2.70;;
55368;SDS011;41247;49.736;8.752;2022-11-15T08:06:18;7.10;;;2.88;;
55368;SDS011;41247;49.736;8.752;2022-11-15T08:09:58;3.92;;;2.60;;
55368;SDS011;41247;49.736;8.752;2022-11-15T08:13:39;13.63;;;4.45;;
55368;SDS011;41247;49.736;8.752;2022-11-15T08:17:20;7.05;;;2.38;;
55368;SDS011;41247;49.736;8.752;2022-11-15T08:21:00;7.25;;;2.47;;
55368;SDS011;41247;49.736;8.752;2022-11-15T08:24:41;5.63;;;2.22;;
55368;SDS011;41247;49.736;8.752;2022-11-15T08:28:22;4.32;;;2.40;;
55368;SDS011;41247;49.736;8.752;2022-11-15T08:32:03;5.18;;;2.22;;
55368;SDS011;41247;49.736;8.752;2022-11-15T08:35:44;4.68;;;2.50;;
55368;SDS011;41247;49.736;8.752;2022-11-15T08:39:24;4.30;;;2.20;;
55368;SDS011;41247;49.736;8.752;2022-11-15T08:43:05;9.77;;;2.50;;
55368;SDS011;41247;49.736;8.752;2022-11-15T08:46:46;6.05;;;2.20;;
55368;SDS011;41247;49.736;8.752;2022-11-15T08:50:26;11.73;;;2.70;;
55368;SDS011;41247;49.736;8.752;2022-11-15T08:54:07;4.25;;;2.17;;
55368;SDS011;41247;49.736;8.752;2022-11-15T08:57:51;5.45;;;2.75;;
55368;SDS011;41247;49.736;8.752;2022-11-15T09:01:31;12.27;;;3.10;;
55368;SDS011;41247;49.736;8.752;2022-11-15T09:05:12;4.90;;;1.95;;
55368;SDS011;41247;49.736;8.752;2022-11-15T09:08:53;2.90;;;2.15;;
55368;SDS011;41247;49.736;8.752;2022-11-15T09:12:33;5.97;;;2.25;;
55368;SDS011;41247;49.736;8.752;2022-11-15T09:16:14;5.55;;;2.30;;
55368;SDS011;41247;49.736;8.752;2022-11-15T09:19:54;4.43;;;2.50;;
55368;SDS011;41247;49.736;8.752;2022-11-15T09:23:35;6.38;;;2.30;;
55368;SDS011;41247;49.736;8.752;2022-11-15T09:27:15;5.05;;;2.70;;
55368;SDS011;41247;49.736;8.752;2022-11-15T09:30:57;2.78;;;2.25;;
55368;SDS011;41247;49.736;8.752;2022-11-15T09:34:41;8.40;;;3.05;;
55368;SDS011;41247;49.736;8.752;2022-11-15T09:38:23;4.22;;;2.22;;
55368;SDS011;41247;49.736;8.752;2022-11-15T09:42:11;3.60;;;2.20;;
55368;SDS011;41247;49.736;8.752;2022-11-15T09:46:56;4.57;;;2.33;;
55368;SDS011;41247;49.736;8.752;2022-11-15T09:50:36;3.83;;;2.00;;
55368;SDS011;41247;49.736;8.752;2022-11-15T09:54:33;3.25;;;2.30;;
55368;SDS011;41247;49.736;8.752;2022-11-15T10:15:14;4.47;;;1.63;;
55368;SDS011;41247;49.736;8.752;2022-11-15T10:19:08;2.75;;;1.58;;
55368;SDS011;41247;49.736;8.752;2022-11-15T10:23:11;2.00;;;1.38;;
55368;SDS011;41247;49.736;8.752;2022-11-15T10:26:58;2.72;;;1.20;;
55368;SDS011;41247;49.736;8.752;2022-11-15T10:30:41;2.17;;;1.10;;
55368;SDS011;41247;49.736;8.752;2022-11-15T10:34:25;1.63;;;1.08;;
55368;SDS011;41247;49.736;8.752;2022-11-15T10:38:07;2.70;;;1.08;;
55368;SDS011;41247;49.736;8.752;2022-11-15T10:41:49;1.58;;;1.10;;
55368;SDS011;41247;49.736;8.752;2022-11-15T10:45:31;2.88;;;1.15;;
55368;SDS011;41247;49.736;8.752;2022-11-15T10:49:14;1.65;;;1.42;;
55368;SDS011;41247;49.736;8.752;2022-11-15T10:53:02;1.65;;;1.20;;
55368;SDS011;41247;49.736;8.752;2022-11-15T10:56:47;3.70;;;1.20;;
55368;SDS011;41247;49.736;8.752;2022-11-15T11:00:37;6.47;;;1.73;;
55368;SDS011;41247;49.736;8.752;2022-11-15T11:04:18;8.15;;;1.60;;
55368;SDS011;41247;49.736;8.752;2022-11-15T11:08:00;8.13;;;1.95;;
55368;SDS011;41247;49.736;8.752;2022-11-15T11:11:50;2.67;;;1.00;;
55368;SDS011;41247;49.736;8.752;2022-11-15T11:15:31;4.25;;;1.33;;
55368;SDS011;41247;49.736;8.752;2022-11-15T11:19:23;4.32;;;1.35;;
55368;SDS011;41247;49.736;8.752;2022-11-15T11:40:39;2.42;;;0.80;;
55368;SDS011;41247;49.736;8.752;2022-11-15T11:44:55;2.03;;;1.00;;
55368;SDS011;41247;49.736;8.752;2022-11-15T11:49:05;3.00;;;1.20;;
55368;SDS011;41247;49.736;8.752;2022-11-15T11:53:05;3.33;;;1.08;;
55368;SDS011;41247;49.736;8.752;2022-11-15T11:57:09;3.35;;;0.93;;
55368;SDS011;41247;49.736;8.752;2022-11-15T12:05:07;4.50;;;1.25;;
55368;SDS011;41247;49.736;8.752;2022-11-15T12:09:04;3.17;;;1.08;;
55368;SDS011;41247;49.736;8.752;2022-11-15T12:13:02;2.88;;;1.00;;
55368;SDS011;41247;49.736;8.752;2022-11-15T12:16:52;1.10;;;1.00;;
55368;SDS011;41247;49.736;8.752;2022-11-15T12:20:34;2.53;;;1.30;;
55368;SDS011;41247;49.736;8.752;2022-11-15T12:24:27;2.15;;;1.13;;
55368;SDS011;41247;49.736;8.752;2022-11-15T12:28:38;4.80;;;1.20;;
55368;SDS011;41247;49.736;8.752;2022-11-15T12:32:33;3.72;;;1.10;;
55368;SDS011;41247;49.736;8.752;2022-11-15T12:40:17;2.58;;;1.17;;
55368;SDS011;41247;49.736;8.752;2022-11-15T12:44:13;2.53;;;1.20;;
55368;SDS011;41247;49.736;8.752;2022-11-15T12:55:36;1.77;;;1.17;;
55368;SDS011;41247;49.736;8.752;2022-11-15T12:59:38;1.80;;;1.00;;
55368;SDS011;41247;49.736;8.752;2022-11-15T13:03:31;1.45;;;1.00;;
55368;SDS011;41247;49.736;8.752;2022-11-15T13:07:54;3.20;;;1.10;;
55368;SDS011;41247;49.736;8.752;2022-11-15T13:15:37;2.13;;;1.13;;
55368;SDS011;41247;49.736;8.752;2022-11-15T13:19:41;2.53;;;1.20;;
55368;SDS011;41247;49.736;8.752;2022-11-15T13:31:49;1.85;;;1.42;;
55368;SDS011;41247;49.736;8.752;2022-11-15T13:35:33;2.15;;;1.08;;
55368;SDS011;41247;49.736;8.752;2022-11-15T13:39:33;3.72;;;1.30;;
55368;SDS011;41247;49.736;8.752;2022-11-15T13:50:55;2.17;;;1.10;;
55368;SDS011;41247;49.736;8.752;2022-11-15T13:54:39;1.25;;;0.90;;
55368;SDS011;41247;49.736;8.752;2022-11-15T13:58:21;2.05;;;0.90;;
55368;SDS011;41247;49.736;8.752;2022-11-15T14:02:17;2.60;;;1.15;;
55368;SDS011;41247;49.736;8.752;2022-11-15T14:06:13;2.22;;;1.20;;
55368;SDS011;41247;49.736;8.752;2022-11-15T14:09:56;2.83;;;1.13;;
55368;SDS011;41247;49.736;8.752;2022-11-15T14:13:37;1.15;;;0.90;;
55368;SDS011;41247;49.736;8.752;2022-11-15T14:21:10;3.63;;;1.10;;
55368;SDS011;41247;49.736;8.752;2022-11-15T14:29:20;2.50;;;1.40;;
55368;SDS011;41247;49.736;8.752;2022-11-15T14:37:16;2.88;;;1.10;;
55368;SDS011;41247;49.736;8.752;2022-11-15T14:41:12;1.98;;;1.00;;
55368;SDS011;41247;49.736;8.752;2022-11-15T14:45:13;1.00;;;0.90;;
55368;SDS011;41247;49.736;8.752;2022-11-15T14:48:58;1.63;;;0.93;;
55368;SDS011;41247;49.736;8.752;2022-11-15T14:52:38;2.00;;;0.85;;
55368;SDS011;41247;49.736;8.752;2022-11-15T14:56:19;2.33;;;0.80;;
55368;SDS011;41247;49.736;8.752;2022-11-15T15:00:00;1.45;;;1.00;;
55368;SDS011;41247;49.736;8.752;2022-11-15T15:03:40;2.22;;;0.90;;
55368;SDS011;41247;49.736;8.752;2022-11-15T15:07:21;1.60;;;0.95;;
55368;SDS011;41247;49.736;8.752;2022-11-15T15:11:03;1.38;;;0.90;;
55368;SDS011;41247;49.736;8.752;2022-11-15T15:14:53;2.40;;;0.93;;
55368;SDS011;41247;49.736;8.752;2022-11-15T15:18:34;2.53;;;0.80;;
55368;SDS011;41247;49.736;8.752;2022-11-15T15:22:15;1.23;;;0.98;;
55368;SDS011;41247;49.736;8.752;2022-11-15T15:29:39;1.75;;;1.10;;
55368;SDS011;41247;49.736;8.752;2022-11-15T15:33:20;4.88;;;1.15;;
55368;SDS011;41247;49.736;8.752;2022-11-15T15:41:00;2.30;;;1.10;;
55368;SDS011;41247;49.736;8.752;2022-11-15T15:44:41;2.13;;;1.10;;
55368;SDS011;41247;49.736;8.752;2022-11-15T15:48:21;1.75;;;0.80;;
55368;SDS011;41247;49.736;8.752;2022-11-15T15:52:02;1.85;;;0.88;;
55368;SDS011;41247;49.736;8.752;2022-11-15T15:55:42;1.10;;;1.00;;
55368;SDS011;41247;49.736;8.752;2022-11-15T15:59:23;3.00;;;1.00;;
55368;SDS011;41247;49.736;8.752;2022-11-15T16:03:04;1.67;;;1.25;;
55368;SDS011;41247;49.736;8.752;2022-11-15T16:06:44;3.30;;;1.00;;
55368;SDS011;41247;49.736;8.752;2022-11-15T16:10:28;1.35;;;0.95;;
55368;SDS011;41247;49.736;8.752;2022-11-15T16:14:13;3.95;;;1.30;;
55368;SDS011;41247;49.736;8.752;2022-11-15T16:17:55;3.25;;;1.10;;
55368;SDS011;41247;49.736;8.752;2022-11-15T16:21:38;2.35;;;1.10;;
55368;SDS011;41247;49.736;8.752;2022-11-15T16:25:18;4.45;;;1.10;;
55368;SDS011;41247;49.736;8.752;2022-11-15T16:28:59;1.83;;;0.95;;
55368;SDS011;41247;49.736;8.752;2022-11-15T16:32:40;2.15;;;1.02;;
55368;SDS011;41247;49.736;8.752;2022-11-15T16:36:24;1.27;;;0.88;;
55368;SDS011;41247;49.736;8.752;2022-11-15T16:40:22;2.40;;;1.10;;
55368;SDS011;41247;49.736;8.752;2022-11-15T16:44:12;2.10;;;0.85;;
55368;SDS011;41247;49.736;8.752;2022-11-15T16:47:56;2.30;;;0.95;;
55368;SDS011;41247;49.736;8.752;2022-11-15T16:51:37;1.88;;;1.15;;
55368;SDS011;41247;49.736;8.752;2022-11-15T16:55:18;4.85;;;1.13;;
55368;SDS011;41247;49.736;8.752;2022-11-15T16:59:00;4.15;;;1.48;;
55368;SDS011;41247;49.736;8.752;2022-11-15T17:02:50;3.35;;;1.70;;
55368;SDS011;41247;49.736;8.752;2022-11-15T17:06:31;2.40;;;1.40;;
55368;SDS011;41247;49.736;8.752;2022-11-15T17:10:12;3.13;;;1.90;;
55368;SDS011;41247;49.736;8.752;2022-11-15T17:13:56;3.38;;;2.25;;
55368;SDS011;41247;49.736;8.752;2022-11-15T17:17:37;6.43;;;1.80;;
55368;SDS011;41247;49.736;8.752;2022-11-15T17:21:19;4.22;;;1.80;;
55368;SDS011;41247;49.736;8.752;2022-11-15T17:25:03;3.33;;;1.70;;
55368;SDS011;41247;49.736;8.752;2022-11-15T17:28:44;8.95;;;5.03;;
55368;SDS011;41247;49.736;8.752;2022-11-15T17:32:25;3.85;;;1.70;;
55368;SDS011;41247;49.736;8.752;2022-11-15T17:36:07;2.92;;;1.80;;
55368;SDS011;41247;49.736;8.752;2022-11-15T17:39:50;5.18;;;1.88;;
55368;SDS011;41247;49.736;8.752;2022-11-15T17:43:31;4.30;;;1.60;;
55368;SDS011;41247;49.736;8.752;2022-11-15T17:47:13;3.20;;;1.60;;
55368;SDS011;41247;49.736;8.752;2022-11-15T17:50:54;4.25;;;1.80;;
55368;SDS011;41247;49.736;8.752;2022-11-15T17:58:22;2.25;;;1.23;;
55368;SDS011;41247;49.736;8.752;2022-11-15T18:02:02;2.00;;;1.08;;
55368;SDS011;41247;49.736;8.752;2022-11-15T18:05:43;2.85;;;1.52;;
55368;SDS011;41247;49.736;8.752;2022-11-15T18:09:23;2.40;;;1.30;;
55368;SDS011;41247;49.736;8.752;2022-11-15T18:13:04;3.42;;;1.25;;
55368;SDS011;41247;49.736;8.752;2022-11-15T18:16:45;3.92;;;1.70;;
55368;SDS011;41247;49.736;8.752;2022-11-15T18:20:25;2.55;;;1.20;;
55368;SDS011;41247;49.736;8.752;2022-11-15T18:24:06;3.10;;;1.42;;
55368;SDS011;41247;49.736;8.752;2022-11-15T18:27:46;2.85;;;1.25;;
55368;SDS011;41247;49.736;8.752;2022-11-15T18:31:29;3.33;;;1.40;;
55368;SDS011;41247;49.736;8.752;2022-11-15T18:35:10;3.85;;;1.42;;
55368;SDS011;41247;49.736;8.752;2022-11-15T18:38:57;2.58;;;1.35;;
55368;SDS011;41247;49.736;8.752;2022-11-15T18:42:40;5.22;;;1.38;;
55368;SDS011;41247;49.736;8.752;2022-11-15T18:46:22;2.33;;;1.38;;
55368;SDS011;41247;49.736;8.752;2022-11-15T18:50:05;5.25;;;1.27;;
55368;SDS011;41247;49.736;8.752;2022-11-15T18:53:46;4.22;;;2.10;;
55368;SDS011;41247;49.736;8.752;2022-11-15T18:57:28;2.53;;;1.33;;
55368;SDS011;41247;49.736;8.752;2022-11-15T19:01:10;4.95;;;1.40;;
55368;SDS011;41247;49.736;8.752;2022-11-15T19:04:54;4.28;;;1.70;;
55368;SDS011;41247;49.736;8.752;2022-11-15T19:08:35;2.72;;;1.35;;
55368;SDS011;41247;49.736;8.752;2022-11-15T19:12:16;3.83;;;1.60;;
55368;SDS011;41247;49.736;8.752;2022-11-15T19:16:00;2.30;;;1.10;;
55368;SDS011;41247;49.736;8.752;2022-11-15T19:19:43;3.70;;;1.60;;
55368;SDS011;41247;49.736;8.752;2022-11-15T19:23:24;2.15;;;1.38;;
55368;SDS011;41247;49.736;8.752;2022-11-15T19:27:05;2.08;;;1.10;;
55368;SDS011;41247;49.736;8.752;2022-11-15T19:30:45;3.55;;;1.38;;
55368;SDS011;41247;49.736;8.752;2022-11-15T19:34:26;7.57;;;1.40;;
55368;SDS011;41247;49.736;8.752;2022-11-15T19:38:06;4.63;;;1.50;;
55368;SDS011;41247;49.736;8.752;2022-11-15T19:41:47;2.28;;;1.30;;
55368;SDS011;41247;49.736;8.752;2022-11-15T19:45:28;4.50;;;1.48;;
55368;SDS011;41247;49.736;8.752;2022-11-15T19:49:08;2.78;;;1.20;;
55368;SDS011;41247;49.736;8.752;2022-11-15T19:52:49;5.20;;;1.88;;
55368;SDS011;41247;49.736;8.752;2022-11-15T19:56:30;2.63;;;1.60;;
55368;SDS011;41247;49.736;8.752;2022-11-15T20:04:36;2.33;;;1.52;;
55368;SDS011;41247;49.736;8.752;2022-11-15T20:08:17;1.85;;;1.10;;
55368;SDS011;41247;49.736;8.752;2022-11-15T20:11:57;5.13;;;1.50;;
55368;SDS011;41247;49.736;8.752;2022-11-15T20:15:38;3.75;;;1.70;;
55368;SDS011;41247;49.736;8.752;2022-11-15T20:19:19;3.90;;;1.30;;
55368;SDS011;41247;49.736;8.752;2022-11-15T20:22:59;2.50;;;1.50;;
55368;SDS011;41247;49.736;8.752;2022-11-15T20:26:40;3.20;;;1.70;;
55368;SDS011;41247;49.736;8.752;2022-11-15T20:30:20;3.78;;;1.58;;
55368;SDS011;41247;49.736;8.752;2022-11-15T20:34:01;6.95;;;2.47;;
55368;SDS011;41247;49.736;8.752;2022-11-15T20:37:42;4.45;;;1.77;;
55368;SDS011;41247;49.736;8.752;2022-11-15T20:41:22;4.50;;;1.63;;
55368;SDS011;41247;49.736;8.752;2022-11-15T20:45:03;2.78;;;1.60;;
55368;SDS011;41247;49.736;8.752;2022-11-15T20:48:44;4.55;;;1.67;;
55368;SDS011;41247;49.736;8.752;2022-11-15T20:52:24;2.33;;;1.38;;
55368;SDS011;41247;49.736;8.752;2022-11-15T20:56:07;3.53;;;1.67;;
55368;SDS011;41247;49.736;8.752;2022-11-15T20:59:51;2.67;;;1.67;;
55368;SDS011;41247;49.736;8.752;2022-11-15T21:03:32;2.67;;;1.60;;
55368;SDS011;41247;49.736;8.752;2022-11-15T21:07:13;4.03;;;1.55;;
55368;SDS011;41247;49.736;8.752;2022-11-15T21:10:54;2.90;;;1.40;;
55368;SDS011;41247;49.736;8.752;2022-11-15T21:14:34;2.47;;;1.48;;
55368;SDS011;41247;49.736;8.752;2022-11-15T21:18:15;2.92;;;1.77;;
55368;SDS011;41247;49.736;8.752;2022-11-15T21:21:56;4.72;;;1.95;;
55368;SDS011;41247;49.736;8.752;2022-11-15T21:25:36;2.40;;;1.63;;
55368;SDS011;41247;49.736;8.752;2022-11-15T21:29:17;2.28;;;1.60;;
55368;SDS011;41247;49.736;8.752;2022-11-15T21:32:58;2.78;;;1.45;;
55368;SDS011;41247;49.736;8.752;2022-11-15T21:36:39;2.33;;;1.80;;
55368;SDS011;41247;49.736;8.752;2022-11-15T21:40:19;3.78;;;1.70;;
55368;SDS011;41247;49.736;8.752;2022-11-15T21:44:00;3.45;;;1.55;;
55368;SDS011;41247;49.736;8.752;2022-11-15T21:47:43;4.30;;;2.35;;
55368;SDS011;41247;49.736;8.752;2022-11-15T21:51:23;5.47;;;2.33;;
55368;SDS011;41247;49.736;8.752;2022-11-15T21:55:04;4.25;;;2.00;;
55368;SDS011;41247;49.736;8.752;2022-11-15T21:58:45;4.40;;;1.90;;
55368;SDS011;41247;49.736;8.752;2022-11-15T22:02:25;3.65;;;1.90;;
55368;SDS011;41247;49.736;8.752;2022-11-15T22:06:06;5.57;;;2.20;;
55368;SDS011;41247;49.736;8.752;2022-11-15T22:09:48;2.33;;;1.52;;
55368;SDS011;41247;49.736;8.752;2022-11-15T22:13:28;3.55;;;1.92;;
55368;SDS011;41247;49.736;8.752;2022-11-15T22:17:09;3.90;;;1.90;;
55368;SDS011;41247;49.736;8.752;2022-11-15T22:20:56;6.28;;;2.22;;
55368;SDS011;41247;49.736;8.752;2022-11-15T22:24:40;4.53;;;2.10;;
55368;SDS011;41247;49.736;8.752;2022-11-15T22:28:20;5.75;;;2.05;;
55368;SDS011;41247;49.736;8.752;2022-11-15T22:32:02;3.28;;;2.20;;
55368;SDS011;41247;49.736;8.752;2022-11-15T22:35:43;5.22;;;2.63;;
55368;SDS011;41247;49.736;8.752;2022-11-15T22:39:23;3.40;;;2.10;;
55368;SDS011;41247;49.736;8.752;2022-11-15T22:43:04;5.30;;;2.03;;
55368;SDS011;41247;49.736;8.752;2022-11-15T22:46:45;3.33;;;1.90;;
55368;SDS011;41247;49.736;8.752;2022-11-15T22:50:26;5.78;;;2.47;;
55368;SDS011;41247;49.736;8.752;2022-11-15T22:54:08;4.25;;;2.10;;
55368;SDS011;41247;49.736;8.752;2022-11-15T22:57:48;4.63;;;2.33;;
55368;SDS011;41247;49.736;8.752;2022-11-15T23:01:29;5.32;;;1.92;;
55368;SDS011;41247;49.736;8.752;2022-11-15T23:05:09;2.28;;;2.08;;
55368;SDS011;41247;49.736;8.752;2022-11-15T23:08:50;8.90;;;2.38;;
55368;SDS011;41247;49.736;8.752;2022-11-15T23:12:31;3.47;;;2.13;;
55368;SDS011;41247;49.736;8.752;2022-11-15T23:16:11;4.90;;;2.53;;
55368;SDS011;41247;49.736;8.752;2022-11-15T23:19:52;4.10;;;2.38;;
55368;SDS011;41247;49.736;8.752;2022-11-15T23:23:33;4.40;;;2.53;;
55368;SDS011;41247;49.736;8.752;2022-11-15T23:27:14;3.05;;;2.42;;
55368;SDS011;41247;49.736;8.752;2022-11-15T23:31:00;4.05;;;2.58;;
55368;SDS011;41247;49.736;8.752;2022-11-15T23:34:46;4.25;;;2.60;;
55368;SDS011;41247;49.736;8.752;2022-11-15T23:38:27;5.72;;;2.67;;
55368;SDS011;41247;49.736;8.752;2022-11-15T23:42:07;4.57;;;2.47;;
55368;SDS011;41247;49.736;8.752;2022-11-15T23:45:48;6.65;;;2.80;;
55368;SDS011;41247;49.736;8.752;2022-11-15T23:49:28;6.15;;;3.15;;
55368;SDS011;41247;49.736;8.752;2022-11-15T23:53:09;5.13;;;2.80;;
55368;SDS011;41247;49.736;8.752;2022-11-15T23:56:50;4.80;;;2.85;;
